createdAt,value
2022-08-05T00:01:35.928Z,22.36
2022-08-05T00:04:17.492Z,22.62
2022-08-05T00:06:47.299Z,22.64
2022-08-05T00:09:19.507Z,22.53
2022-08-05T00:11:49.534Z,22.55
2022-08-05T00:14:27.864Z,22.56
2022-08-05T00:16:59.053Z,22.54
2022-08-05T00:19:33.352Z,22.50
2022-08-05T00:22:02.660Z,22.20
2022-08-05T00:24:31.571Z,22.34
2022-08-05T00:26:59.998Z,22.11
2022-08-05T00:29:37.877Z,22.31
2022-08-05T00:32:12.325Z,22.33
2022-08-05T00:35:05.571Z,22.29
2022-08-05T00:37:35.396Z,22.25
2022-08-05T00:40:05.127Z,22.31
2022-08-05T00:42:40.394Z,22.24
2022-08-05T00:45:11.617Z,21.98
2022-08-05T00:47:56.966Z,22.12
2022-08-05T00:50:31.755Z,22.06
2022-08-05T00:53:00.194Z,22.16
2022-08-05T00:55:34.245Z,22.11
2022-08-05T00:58:11.991Z,22.08
2022-08-05T01:00:42.083Z,21.99
2022-08-05T01:03:22.769Z,22.03
2022-08-05T01:05:51.968Z,22.05
2022-08-05T01:08:41.365Z,21.95
2022-08-05T01:11:22.380Z,21.74
2022-08-05T01:14:08.503Z,21.84
2022-08-05T01:16:45.190Z,21.77
2022-08-05T01:19:57.004Z,21.69
2022-08-05T01:22:41.798Z,21.82
2022-08-05T01:25:40.690Z,21.77
2022-08-05T01:28:24.532Z,21.73
2022-08-05T01:30:55.995Z,21.78
2022-08-05T01:33:35.147Z,21.71
2022-08-05T01:36:13.224Z,21.64
2022-08-05T01:38:48.581Z,20.99
2022-08-05T01:41:22.740Z,21.30
2022-08-05T01:43:57.798Z,21.02
2022-08-05T01:46:41.357Z,21.19
2022-08-05T01:49:22.792Z,21.37
2022-08-05T01:51:53.348Z,21.44
2022-08-05T01:54:25.713Z,21.56
2022-08-05T01:58:09.706Z,21.58
2022-08-05T01:59:51.141Z,21.37
2022-08-05T02:02:26.136Z,21.35
2022-08-05T02:04:59.853Z,21.06
2022-08-05T02:07:30.428Z,21.38
2022-08-05T02:10:00.385Z,21.46
2022-08-05T02:12:36.017Z,21.44
2022-08-05T02:15:12.345Z,21.45
2022-08-05T02:18:32.403Z,21.39
2022-08-05T02:20:41.714Z,21.17
2022-08-05T02:23:13.532Z,20.35
2022-08-05T02:25:50.085Z,20.11
2022-08-05T02:28:29.124Z,20.36
2022-08-05T02:31:04.163Z,20.26
2022-08-05T02:33:39.380Z,20.33
2022-08-05T02:36:13.358Z,20.61
2022-08-05T02:38:45.540Z,20.51
2022-08-05T02:41:28.441Z,20.27
2022-08-05T02:44:12.037Z,20.51
2022-08-05T02:46:58.989Z,20.60
2022-08-05T02:49:35.674Z,20.62
2022-08-05T02:52:09.723Z,20.70
2022-08-05T02:54:42.669Z,20.55
2022-08-05T02:58:10.570Z,20.63
2022-08-05T03:00:12.949Z,20.73
2022-08-05T03:02:45.491Z,20.72
2022-08-05T03:05:16.500Z,20.71
2022-08-05T03:08:00.506Z,20.66
2022-08-05T03:10:33.897Z,20.67
2022-08-05T03:15:29.545Z,20.68
2022-08-05T03:17:59.412Z,20.71
2022-08-05T03:20:28.113Z,20.65
2022-08-05T03:22:58.132Z,20.53
2022-08-05T03:25:32.833Z,20.08
2022-08-05T03:28:18.485Z,20.51
2022-08-05T03:30:49.106Z,20.51
2022-08-05T03:33:19.838Z,20.51
2022-08-05T03:35:49.847Z,20.40
2022-08-05T03:38:32.878Z,20.40
2022-08-05T03:41:08.267Z,20.29
2022-08-05T03:44:08.815Z,20.39
2022-08-05T03:46:29.712Z,20.70
2022-08-05T03:49:02.272Z,20.75
2022-08-05T03:52:37.527Z,20.88
2022-08-05T03:55:52.466Z,21.03
2022-08-05T03:57:29.207Z,21.32
2022-08-05T04:00:15.938Z,21.37
2022-08-05T04:02:58.649Z,21.31
2022-08-05T04:05:33.590Z,21.33
2022-08-05T04:08:05.514Z,21.46
2022-08-05T04:10:38.116Z,21.53
2022-08-05T04:13:08.599Z,21.81
2022-08-05T04:15:37.192Z,22.04
2022-08-05T04:18:09.745Z,21.36
2022-08-05T04:20:41.372Z,21.09
2022-08-05T04:23:12.677Z,21.52
2022-08-05T04:26:00.510Z,20.49
2022-08-05T04:28:30.834Z,19.44
2022-08-05T04:31:01.340Z,20.19
2022-08-05T04:33:54.282Z,20.87
2022-08-05T04:36:45.306Z,21.17
2022-08-05T04:39:08.872Z,20.29
2022-08-05T04:41:38.673Z,19.67
2022-08-05T04:44:08.896Z,19.95
2022-08-05T04:46:38.905Z,19.93
2022-08-05T04:49:12.367Z,19.84
2022-08-05T04:51:44.690Z,20.08
2022-08-05T04:54:14.870Z,19.84
2022-08-05T04:56:43.555Z,20.11
2022-08-05T04:59:21.449Z,19.92
2022-08-05T05:02:06.993Z,19.78
2022-08-05T05:04:38.262Z,20.61
2022-08-05T05:07:09.507Z,20.56
2022-08-05T05:09:38.166Z,20.92
2022-08-05T05:12:07.072Z,21.09
2022-08-05T05:14:36.200Z,20.50
2022-08-05T05:17:07.523Z,21.07
2022-08-05T05:19:44.150Z,21.53
2022-08-05T05:22:23.817Z,21.55
2022-08-05T05:24:57.277Z,21.72
2022-08-05T05:27:44.434Z,21.93
2022-08-05T05:30:31.143Z,22.11
2022-08-05T05:33:09.121Z,22.33
2022-08-05T05:35:47.707Z,22.55
2022-08-05T05:38:26.719Z,22.79
2022-08-05T05:40:56.934Z,22.89
2022-08-05T05:43:54.483Z,22.39
2022-08-05T05:46:17.246Z,22.10
2022-08-05T05:48:48.183Z,21.56
2022-08-05T05:51:22.018Z,21.48
2022-08-05T05:53:57.977Z,21.65
2022-08-05T05:56:32.182Z,21.46
2022-08-05T05:59:05.248Z,22.53
2022-08-05T06:01:37.847Z,22.27
2022-08-05T06:04:11.251Z,22.11
2022-08-05T06:06:41.603Z,22.55
2022-08-05T06:09:17.389Z,23.46
2022-08-05T06:12:02.006Z,23.85
2022-08-05T06:14:31.359Z,23.87
2022-08-05T06:17:01.946Z,23.28
2022-08-05T06:19:56.907Z,23.38
2022-08-05T06:22:29.853Z,24.25
2022-08-05T06:24:59.932Z,24.70
2022-08-05T06:28:09.029Z,24.70
2022-08-05T06:30:19.873Z,24.39
2022-08-05T06:32:50.786Z,25.60
2022-08-05T06:36:03.123Z,26.28
2022-08-05T06:38:11.754Z,25.73
2022-08-05T06:40:44.332Z,25.74
2022-08-05T06:43:59.047Z,25.99
2022-08-05T06:46:07.475Z,26.35
2022-08-05T06:48:55.584Z,26.21
2022-08-05T06:51:30.126Z,27.22
2022-08-05T06:54:00.059Z,27.46
2022-08-05T06:56:30.438Z,27.53
2022-08-05T06:59:03.276Z,27.35
2022-08-05T07:01:32.246Z,26.67
2022-08-05T07:04:02.593Z,27.40
2022-08-05T07:06:32.250Z,27.74
2022-08-05T07:09:04.005Z,27.50
2022-08-05T07:11:36.988Z,28.63
2022-08-05T07:14:29.531Z,29.00
2022-08-05T07:17:58.406Z,29.58
2022-08-05T07:20:31.505Z,29.24
2022-08-05T07:22:39.905Z,29.69
2022-08-05T07:25:55.516Z,29.05
2022-08-05T07:28:08.220Z,28.86
2022-08-05T07:30:39.847Z,28.25
2022-08-05T07:33:16.028Z,29.44
2022-08-05T07:36:04.000Z,29.93
2022-08-05T07:38:43.178Z,29.99
2022-08-05T07:42:06.892Z,30.46
2022-08-05T07:44:19.220Z,30.22
2022-08-05T07:46:49.718Z,30.36
2022-08-05T07:49:19.601Z,31.23
2022-08-05T07:51:53.103Z,31.38
2022-08-05T07:54:31.510Z,31.61
2022-08-05T07:57:18.148Z,30.99
2022-08-05T07:59:53.722Z,31.46
2022-08-05T08:02:31.248Z,31.93
2022-08-05T08:05:15.405Z,31.75
2022-08-05T08:08:00.077Z,32.01
2022-08-05T08:10:29.527Z,32.09
2022-08-05T08:12:58.876Z,31.18
2022-08-05T08:16:33.785Z,31.84
2022-08-05T08:18:20.897Z,31.95
2022-08-05T08:21:02.871Z,32.61
2022-08-05T08:24:02.356Z,32.66
2022-08-05T08:26:29.707Z,32.95
2022-08-05T08:29:22.244Z,33.60
2022-08-05T08:31:49.558Z,33.42
2022-08-05T08:34:18.659Z,33.44
2022-08-05T08:36:51.893Z,32.82
2022-08-05T08:39:24.926Z,32.96
2022-08-05T08:41:59.598Z,32.98
2022-08-05T08:45:19.858Z,33.41
2022-08-05T08:48:06.381Z,34.75
2022-08-05T08:50:31.164Z,34.71
2022-08-05T08:53:07.858Z,34.27
2022-08-05T08:56:04.182Z,33.83
2022-08-05T08:58:43.910Z,33.90
2022-08-05T09:01:18.230Z,33.69
2022-08-05T09:03:54.245Z,34.29
2022-08-05T09:06:29.874Z,35.35
2022-08-05T09:09:01.209Z,35.26
2022-08-05T09:11:51.051Z,35.70
2022-08-05T09:14:57.764Z,34.84
2022-08-05T09:17:40.908Z,35.98
2022-08-05T09:20:04.888Z,35.99
2022-08-05T09:23:07.960Z,35.08
2022-08-05T09:26:01.137Z,35.45
2022-08-05T09:28:32.462Z,35.25
2022-08-05T09:31:18.258Z,35.89
2022-08-05T09:33:52.821Z,36.86
2022-08-05T09:36:27.928Z,37.73
2022-08-05T09:39:16.635Z,37.45
2022-08-05T09:41:58.771Z,36.57
2022-08-05T09:44:40.436Z,37.26
2022-08-05T09:47:12.831Z,38.48
2022-08-05T09:49:57.098Z,38.86
2022-08-05T09:52:32.901Z,37.67
2022-08-05T09:55:55.158Z,37.18
2022-08-05T09:57:54.827Z,38.07
2022-08-05T10:00:30.551Z,37.71
2022-08-05T10:02:59.396Z,38.91
2022-08-05T10:05:32.958Z,39.31
2022-08-05T10:08:34.817Z,39.28
2022-08-05T10:10:54.666Z,37.93
2022-08-05T10:13:46.302Z,37.49
2022-08-05T10:16:37.736Z,36.21
2022-08-05T10:19:13.800Z,36.59
2022-08-05T10:21:42.302Z,37.57
2022-08-05T10:24:14.040Z,38.04
2022-08-05T10:26:51.953Z,38.09
2022-08-05T10:29:24.058Z,38.45
2022-08-05T10:32:54.860Z,38.70
2022-08-05T10:35:01.464Z,38.12
2022-08-05T10:37:41.368Z,38.04
2022-08-05T10:40:27.923Z,37.77
2022-08-05T10:43:02.681Z,37.62
2022-08-05T10:45:41.772Z,38.24
2022-08-05T10:48:38.331Z,39.23
2022-08-05T10:51:28.339Z,38.80
2022-08-05T10:54:01.523Z,37.74
2022-08-05T10:56:47.192Z,36.78
2022-08-05T11:00:02.794Z,37.31
2022-08-05T11:02:14.093Z,38.43
2022-08-05T11:04:47.591Z,37.03
2022-08-05T11:07:18.835Z,36.32
2022-08-05T11:10:03.790Z,35.48
2022-08-05T11:12:50.299Z,34.94
2022-08-05T11:15:22.640Z,35.41
2022-08-05T11:18:00.280Z,35.24
2022-08-05T11:20:41.429Z,35.61
2022-08-05T11:24:04.326Z,35.41
2022-08-05T11:26:28.310Z,35.54
2022-08-05T11:29:06.824Z,35.52
2022-08-05T11:31:56.299Z,36.20
2022-08-05T11:34:40.011Z,35.80
2022-08-05T11:38:29.001Z,35.28
2022-08-05T11:41:12.659Z,36.88
2022-08-05T11:44:06.656Z,37.77
2022-08-05T11:46:37.896Z,39.16
2022-08-05T11:49:26.307Z,38.86
2022-08-05T11:51:54.776Z,38.99
2022-08-05T11:54:33.131Z,38.47
2022-08-05T11:57:08.678Z,38.61
2022-08-05T11:59:54.949Z,37.47
2022-08-05T12:02:31.603Z,37.37
2022-08-05T12:05:08.233Z,36.03
2022-08-05T12:08:03.301Z,35.75
2022-08-05T12:10:45.371Z,35.89
2022-08-05T12:13:17.233Z,36.81
2022-08-05T12:15:59.061Z,37.67
2022-08-05T12:18:33.981Z,37.91
2022-08-05T12:21:18.472Z,37.59
2022-08-05T12:23:59.941Z,37.51
2022-08-05T12:26:32.915Z,37.68
2022-08-05T12:29:03.191Z,38.00
2022-08-05T12:31:46.082Z,37.88
2022-08-05T12:34:21.121Z,38.43
2022-08-05T12:36:52.417Z,38.31
2022-08-05T12:39:21.003Z,37.94
2022-08-05T12:41:49.480Z,37.69
2022-08-05T12:44:32.685Z,37.85
2022-08-05T12:47:03.889Z,37.60
2022-08-05T12:50:04.681Z,36.76
2022-08-05T12:52:37.761Z,35.99
2022-08-05T12:55:22.061Z,35.77
2022-08-05T12:58:49.831Z,36.11
2022-08-05T13:02:00.874Z,36.85
2022-08-05T13:03:41.575Z,36.83
2022-08-05T13:06:15.878Z,37.05
2022-08-05T13:08:51.583Z,37.44
2022-08-05T13:11:59.951Z,36.30
2022-08-05T13:14:19.984Z,35.77
2022-08-05T13:16:59.221Z,34.88
2022-08-05T13:19:51.125Z,34.82
2022-08-05T13:22:29.331Z,34.32
2022-08-05T13:25:05.054Z,34.06
2022-08-05T13:27:38.049Z,34.75
2022-08-05T13:30:34.893Z,36.08
2022-08-05T13:33:00.799Z,36.54
2022-08-05T13:35:47.088Z,37.04
2022-08-05T13:38:30.459Z,36.23
2022-08-05T13:41:00.280Z,36.26
2022-08-05T13:43:44.651Z,36.09
2022-08-05T13:46:30.836Z,36.79
2022-08-05T13:49:06.066Z,36.91
2022-08-05T13:51:46.059Z,36.69
2022-08-05T13:54:16.466Z,36.92
2022-08-05T13:56:51.115Z,37.41
2022-08-05T13:59:24.308Z,36.76
2022-08-05T14:01:57.804Z,37.60
2022-08-05T14:04:49.194Z,37.69
2022-08-05T14:07:25.850Z,38.14
2022-08-05T14:10:12.349Z,37.99
2022-08-05T14:12:42.651Z,36.74
2022-08-05T14:16:07.159Z,37.23
2022-08-05T14:18:01.484Z,37.77
2022-08-05T14:20:30.818Z,37.08
2022-08-05T14:23:01.133Z,36.06
2022-08-05T14:25:31.073Z,35.71
2022-08-05T14:27:59.642Z,35.32
2022-08-05T14:30:29.893Z,36.21
2022-08-05T14:32:58.940Z,36.85
2022-08-05T14:35:36.314Z,36.43
2022-08-05T14:38:07.356Z,36.43
2022-08-05T14:40:55.936Z,36.21
2022-08-05T14:43:59.159Z,35.90
2022-08-05T14:46:13.520Z,36.04
2022-08-05T14:48:41.900Z,35.46
2022-08-05T14:51:15.371Z,35.69
2022-08-05T14:53:46.203Z,36.11
2022-08-05T14:56:34.638Z,35.91
2022-08-05T14:59:06.465Z,34.65
2022-08-05T15:01:47.602Z,34.47
2022-08-05T15:04:20.774Z,35.29
2022-08-05T15:06:51.469Z,34.80
2022-08-05T15:09:51.645Z,34.77
2022-08-05T15:12:16.341Z,34.55
2022-08-05T15:14:50.191Z,34.12
2022-08-05T15:17:47.302Z,33.34
2022-08-05T15:20:18.217Z,33.90
2022-08-05T15:22:52.176Z,33.97
2022-08-05T15:25:52.968Z,34.01
2022-08-05T15:28:14.720Z,33.77
2022-08-05T15:30:45.913Z,33.77
2022-08-05T15:34:04.468Z,33.86
2022-08-05T15:36:04.931Z,33.52
2022-08-05T15:38:41.053Z,33.13
2022-08-05T15:41:23.358Z,33.56
2022-08-05T15:43:54.631Z,33.37
2022-08-05T15:46:24.120Z,33.13
2022-08-05T15:49:01.200Z,33.04
2022-08-05T15:52:03.837Z,32.89
2022-08-05T15:54:35.094Z,32.89
2022-08-05T15:57:08.104Z,33.31
2022-08-05T15:59:38.255Z,33.23
2022-08-05T16:02:09.438Z,32.82
2022-08-05T16:04:42.790Z,32.60
2022-08-05T16:07:11.343Z,32.43
2022-08-05T16:09:42.180Z,32.50
2022-08-05T16:12:13.453Z,32.08
2022-08-05T16:14:43.643Z,31.57
2022-08-05T16:17:12.518Z,31.54
2022-08-05T16:20:04.552Z,31.71
2022-08-05T16:22:34.138Z,31.46
2022-08-05T16:25:09.567Z,31.31
2022-08-05T16:27:59.721Z,30.79
2022-08-05T16:30:30.828Z,31.31
2022-08-05T16:33:01.059Z,31.05
2022-08-05T16:35:32.107Z,30.72
2022-08-05T16:38:24.510Z,30.42
2022-08-05T16:40:55.288Z,30.68
2022-08-05T16:43:32.365Z,30.74
2022-08-05T16:46:06.200Z,30.89
2022-08-05T16:48:41.405Z,30.65
2022-08-05T16:51:11.155Z,30.59
2022-08-05T16:54:05.864Z,30.34
2022-08-05T16:56:33.932Z,30.05
2022-08-05T16:59:07.626Z,30.21
2022-08-05T17:01:52.982Z,30.09
2022-08-05T17:04:23.798Z,29.66
2022-08-05T17:06:55.487Z,29.63
2022-08-05T17:09:24.008Z,29.28
2022-08-05T17:11:59.766Z,29.49
2022-08-05T17:14:37.447Z,29.88
2022-08-05T17:17:09.347Z,29.96
2022-08-05T17:19:45.565Z,29.88
2022-08-05T17:22:17.914Z,29.65
2022-08-05T17:24:57.094Z,29.64
2022-08-05T17:27:33.315Z,28.90
2022-08-05T17:30:07.039Z,28.42
2022-08-05T17:32:42.148Z,28.29
2022-08-05T17:35:12.264Z,28.18
2022-08-05T17:37:45.556Z,28.32
2022-08-05T17:40:22.289Z,28.08
2022-08-05T17:42:53.047Z,27.37
2022-08-05T17:45:38.181Z,27.92
2022-08-05T17:48:08.928Z,28.07
2022-08-05T17:50:37.538Z,27.83
2022-08-05T17:53:08.700Z,28.14
2022-08-05T17:55:39.646Z,27.88
2022-08-05T17:58:12.873Z,27.59
2022-08-05T18:00:47.630Z,27.28
2022-08-05T18:06:11.189Z,27.04
2022-08-05T18:08:44.499Z,27.04
2022-08-05T18:11:23.336Z,27.08
2022-08-05T18:13:53.440Z,27.00
2022-08-05T18:16:23.342Z,27.21
2022-08-05T18:18:52.034Z,27.39
2022-08-05T18:21:22.989Z,27.14
2022-08-05T18:23:55.063Z,26.67
2022-08-05T18:26:29.071Z,26.14
2022-08-05T18:29:00.951Z,26.63
2022-08-05T18:31:33.850Z,26.64
2022-08-05T18:34:06.205Z,26.64
2022-08-05T18:36:41.556Z,26.63
2022-08-05T18:39:41.781Z,26.59
2022-08-05T18:42:04.896Z,26.65
2022-08-05T18:44:51.472Z,26.69
2022-08-05T18:47:26.653Z,26.89
2022-08-05T18:50:15.656Z,26.94
2022-08-05T18:52:51.114Z,26.89
2022-08-05T18:55:22.414Z,27.04
2022-08-05T18:57:53.981Z,26.89
2022-08-05T19:00:28.570Z,26.72
2022-08-05T19:03:03.561Z,26.55
2022-08-05T19:06:13.612Z,26.61
2022-08-05T19:08:21.949Z,26.51
2022-08-05T19:11:04.783Z,26.97
2022-08-05T19:13:38.611Z,27.25
2022-08-05T19:16:25.310Z,26.80
2022-08-05T19:18:57.503Z,26.77
2022-08-05T19:21:34.208Z,26.70
2022-08-05T19:24:08.913Z,26.74
2022-08-05T19:26:54.372Z,26.64
2022-08-05T19:29:26.808Z,26.34
2022-08-05T19:32:08.590Z,26.84
2022-08-05T19:34:41.936Z,26.94
2022-08-05T19:37:22.522Z,26.83
2022-08-05T19:40:08.219Z,27.15
2022-08-05T19:42:39.096Z,27.38
2022-08-05T19:45:08.816Z,27.44
2022-08-05T19:47:42.805Z,27.53
2022-08-05T19:50:12.777Z,26.97
2022-08-05T19:52:41.335Z,27.18
2022-08-05T19:56:18.414Z,27.04
2022-08-05T19:58:19.361Z,27.29
2022-08-05T20:00:48.410Z,27.30
2022-08-05T20:03:16.862Z,26.80
2022-08-05T20:05:51.193Z,26.46
2022-08-05T20:08:20.191Z,26.73
2022-08-05T20:10:49.742Z,26.87
2022-08-05T20:13:30.154Z,26.82
2022-08-05T20:16:07.353Z,26.80
2022-08-05T20:18:36.557Z,26.49
2022-08-05T20:21:07.514Z,26.55
2022-08-05T20:23:39.453Z,27.05
2022-08-05T20:26:19.786Z,27.24
2022-08-05T20:28:50.794Z,27.20
2022-08-05T20:31:21.711Z,27.23
2022-08-05T20:33:56.750Z,27.14
2022-08-05T20:36:27.030Z,27.02
2022-08-05T20:38:57.967Z,26.96
2022-08-05T20:41:43.335Z,26.83
2022-08-05T20:44:19.175Z,26.94
2022-08-05T20:46:58.948Z,26.52
2022-08-05T20:49:27.250Z,26.37
2022-08-05T20:51:58.092Z,26.80
2022-08-05T20:54:43.080Z,26.54
2022-08-05T20:57:24.625Z,26.97
2022-08-05T21:00:21.155Z,26.38
2022-08-05T21:03:01.261Z,26.55
2022-08-05T21:05:47.883Z,26.32
2022-08-05T21:08:20.042Z,26.31
2022-08-05T21:10:49.417Z,26.18
2022-08-05T21:13:26.417Z,26.45
2022-08-05T21:16:07.430Z,26.63
2022-08-05T21:18:36.102Z,26.66
2022-08-05T21:21:04.801Z,26.67
2022-08-05T21:23:37.235Z,26.55
2022-08-05T21:26:12.248Z,26.54
2022-08-05T21:28:41.089Z,26.54
2022-08-05T21:31:16.645Z,26.49
2022-08-05T21:33:47.538Z,26.45
2022-08-05T21:36:19.047Z,26.12
2022-08-05T21:38:57.671Z,25.70
2022-08-05T21:41:33.938Z,25.71
2022-08-05T21:44:04.255Z,25.90
2022-08-05T21:46:34.620Z,25.88
2022-08-05T21:49:04.759Z,25.68
2022-08-05T21:52:22.182Z,25.31
2022-08-05T21:54:27.915Z,25.65
2022-08-05T21:57:29.196Z,24.92
2022-08-05T22:00:03.980Z,25.49
2022-08-05T22:02:35.233Z,25.69
2022-08-05T22:05:04.629Z,25.64
2022-08-05T22:07:40.521Z,25.61
2022-08-05T22:10:27.105Z,25.47
2022-08-05T22:12:57.127Z,25.49
2022-08-05T22:16:00.750Z,25.57
2022-08-05T22:18:15.276Z,25.56
2022-08-05T22:20:48.073Z,25.45
2022-08-05T22:24:02.867Z,25.45
2022-08-05T22:26:49.752Z,25.42
2022-08-05T22:29:26.244Z,25.35
2022-08-05T22:31:59.628Z,25.21
2022-08-05T22:34:32.273Z,25.27
2022-08-05T22:37:03.967Z,25.17
2022-08-05T22:39:34.622Z,25.10
2022-08-05T22:42:12.734Z,25.11
2022-08-05T22:44:56.431Z,25.07
2022-08-05T22:47:28.937Z,25.10
2022-08-05T22:50:20.986Z,25.10
2022-08-05T22:52:49.450Z,24.93
2022-08-05T22:55:18.886Z,24.88
2022-08-05T22:57:50.460Z,24.39
2022-08-05T23:00:20.543Z,24.77
2022-08-05T23:02:50.218Z,24.12
2022-08-05T23:05:21.874Z,24.45
2022-08-05T23:07:51.518Z,24.50
2022-08-05T23:10:23.372Z,24.62
2022-08-05T23:12:55.707Z,24.61
2022-08-05T23:15:27.166Z,24.55
2022-08-05T23:18:00.531Z,24.13
2022-08-05T23:20:32.513Z,24.27
2022-08-05T23:23:03.452Z,24.31
2022-08-05T23:25:53.687Z,24.28
2022-08-05T23:28:29.105Z,24.22
2022-08-05T23:31:07.100Z,24.23
2022-08-05T23:34:05.505Z,24.21
2022-08-05T23:36:38.765Z,24.28
2022-08-05T23:39:17.303Z,23.98
2022-08-05T23:42:01.189Z,24.15
2022-08-05T23:44:32.473Z,24.18
2022-08-05T23:47:02.555Z,24.21
2022-08-05T23:49:43.493Z,24.21
2022-08-05T23:52:30.820Z,24.10
2022-08-05T23:55:02.357Z,23.98
2022-08-05T23:57:33.961Z,23.94
